createdAt,value
2022-09-28T00:00:09.108Z,341
2022-09-28T00:01:07.924Z,352
2022-09-28T00:02:08.161Z,348
2022-09-28T00:03:07.795Z,351
2022-09-28T00:04:08.056Z,350
2022-09-28T00:05:08.436Z,351
2022-09-28T00:06:07.452Z,347
2022-09-28T00:07:07.670Z,351
2022-09-28T00:08:07.947Z,359
2022-09-28T00:09:08.329Z,352
2022-09-28T00:10:07.586Z,355
2022-09-28T00:11:07.679Z,363
2022-09-28T00:12:07.779Z,357
2022-09-28T00:13:07.696Z,339
2022-09-28T00:14:07.337Z,346
2022-09-28T00:15:08.277Z,349
2022-09-28T00:16:07.430Z,350
2022-09-28T00:17:07.821Z,345
2022-09-28T00:18:08.079Z,340
2022-09-28T00:19:07.980Z,347
2022-09-28T00:20:08.129Z,359
2022-09-28T00:21:08.006Z,346
2022-09-28T00:22:08.003Z,355
2022-09-28T00:23:07.750Z,358
2022-09-28T00:24:07.806Z,354
2022-09-28T00:25:08.367Z,346
2022-09-28T00:26:07.667Z,344
2022-09-28T00:27:07.751Z,349
2022-09-28T00:28:07.890Z,345
2022-09-28T00:29:07.554Z,334
2022-09-28T00:30:07.718Z,340
2022-09-28T00:31:07.792Z,349
2022-09-28T00:32:08.022Z,334
2022-09-28T00:33:07.398Z,359
2022-09-28T00:34:07.169Z,358
2022-09-28T00:35:08.229Z,353
2022-09-28T00:37:07.314Z,356
2022-09-28T00:38:07.387Z,361
2022-09-28T00:39:07.978Z,359
2022-09-28T00:40:07.995Z,360
2022-09-28T00:41:07.833Z,364
2022-09-28T00:42:07.855Z,355
2022-09-28T00:43:07.584Z,359
2022-09-28T00:44:07.243Z,356
2022-09-28T00:45:08.162Z,359
2022-09-28T00:46:07.631Z,355
2022-09-28T00:47:07.696Z,356
2022-09-28T00:48:07.601Z,354
2022-09-28T00:49:07.446Z,352
2022-09-28T00:50:07.028Z,348
2022-09-28T00:51:07.773Z,355
2022-09-28T00:53:07.394Z,352
2022-09-28T00:54:07.470Z,349
2022-09-28T00:55:07.049Z,347
2022-09-28T00:56:07.706Z,345
2022-09-28T00:57:07.429Z,362
2022-09-28T00:58:07.079Z,356
2022-09-28T00:59:07.244Z,346
2022-09-28T01:00:08.844Z,354
2022-09-28T01:01:07.582Z,353
2022-09-28T01:04:07.476Z,355
2022-09-28T01:05:07.395Z,354
2022-09-28T01:06:07.306Z,345
2022-09-28T01:07:07.468Z,353
2022-09-28T01:08:07.878Z,341
2022-09-28T01:09:07.929Z,347
2022-09-28T01:11:07.596Z,338
2022-09-28T01:12:07.460Z,342
2022-09-28T01:13:07.375Z,351
2022-09-28T01:14:07.207Z,345
2022-09-28T01:15:07.825Z,355
2022-09-28T01:16:07.924Z,352
2022-09-28T01:17:08.003Z,340
2022-09-28T01:18:07.969Z,345
2022-09-28T01:19:07.620Z,343
2022-09-28T01:20:29.267Z,339
2022-09-28T01:21:08.134Z,341
2022-09-28T01:22:07.327Z,340
2022-09-28T01:23:06.948Z,337
2022-09-28T01:24:07.781Z,349
2022-09-28T01:25:07.436Z,357
2022-09-28T01:26:06.999Z,359
2022-09-28T01:27:07.526Z,356
2022-09-28T01:28:07.140Z,354
2022-09-28T01:29:07.477Z,353
2022-09-28T01:30:07.579Z,347
2022-09-28T01:31:07.611Z,357
2022-09-28T01:32:07.522Z,348
2022-09-28T01:33:07.355Z,346
2022-09-28T01:34:07.182Z,342
2022-09-28T01:35:08.333Z,348
2022-09-28T01:36:07.393Z,343
2022-09-28T01:37:07.254Z,341
2022-09-28T01:38:07.768Z,352
2022-09-28T01:39:07.581Z,355
2022-09-28T01:40:07.540Z,354
2022-09-28T01:41:07.388Z,355
2022-09-28T01:42:07.390Z,359
2022-09-28T01:43:07.521Z,364
2022-09-28T01:44:07.466Z,362
2022-09-28T01:45:07.382Z,355
2022-09-28T01:46:08.120Z,346
2022-09-28T01:47:07.309Z,347
2022-09-28T01:48:08.175Z,351
2022-09-28T01:49:07.859Z,349
2022-09-28T01:50:07.954Z,352
2022-09-28T01:51:07.625Z,359
2022-09-28T01:52:07.443Z,352
2022-09-28T01:53:07.108Z,346
2022-09-28T01:54:07.522Z,358
2022-09-28T01:55:07.356Z,359
2022-09-28T01:56:07.103Z,356
2022-09-28T01:57:08.146Z,361
2022-09-28T01:58:08.156Z,351
2022-09-28T01:59:07.743Z,343
2022-09-28T02:00:08.506Z,344
2022-09-28T02:01:07.445Z,348
2022-09-28T02:02:07.501Z,346
2022-09-28T02:04:07.207Z,353
2022-09-28T02:05:08.038Z,357
2022-09-28T02:06:07.666Z,353
2022-09-28T02:07:07.199Z,350
2022-09-28T02:08:07.768Z,348
2022-09-28T02:09:07.602Z,350
2022-09-28T02:10:07.447Z,354
2022-09-28T02:11:07.308Z,353
2022-09-28T02:13:07.673Z,350
2022-09-28T02:14:07.359Z,353
2022-09-28T02:15:07.996Z,356
2022-09-28T02:16:07.597Z,347
2022-09-28T02:17:07.762Z,355
2022-09-28T02:18:07.593Z,353
2022-09-28T02:19:07.424Z,338
2022-09-28T02:20:07.409Z,335
2022-09-28T02:21:07.451Z,346
2022-09-28T02:22:07.259Z,348
2022-09-28T02:24:07.571Z,343
2022-09-28T02:25:07.527Z,354
2022-09-28T02:26:07.413Z,355
2022-09-28T02:27:07.331Z,366
2022-09-28T02:28:08.046Z,364
2022-09-28T02:29:07.996Z,355
2022-09-28T02:30:08.377Z,354
2022-09-28T02:31:07.131Z,361
2022-09-28T02:33:07.841Z,356
2022-09-28T02:34:07.711Z,353
2022-09-28T02:35:07.828Z,352
2022-09-28T02:36:07.473Z,349
2022-09-28T02:37:07.330Z,351
2022-09-28T02:38:08.085Z,336
2022-09-28T02:39:07.956Z,362
2022-09-28T02:40:08.319Z,341
2022-09-28T02:41:07.404Z,354
2022-09-28T02:42:07.260Z,364
2022-09-28T02:43:07.053Z,359
2022-09-28T02:44:07.289Z,366
2022-09-28T02:45:07.250Z,360
2022-09-28T02:46:07.159Z,355
2022-09-28T02:47:08.050Z,353
2022-09-28T02:48:07.787Z,360
2022-09-28T02:49:21.336Z,358
2022-09-28T02:51:07.823Z,349
2022-09-28T02:52:07.326Z,343
2022-09-28T02:53:07.386Z,346
2022-09-28T02:54:07.619Z,353
2022-09-28T02:55:07.607Z,361
2022-09-28T02:56:07.424Z,358
2022-09-28T02:57:07.447Z,354
2022-09-28T02:58:07.323Z,356
2022-09-28T02:59:07.270Z,357
2022-09-28T03:00:08.607Z,355
2022-09-28T03:01:08.009Z,369
2022-09-28T03:02:07.198Z,352
2022-09-28T03:03:13.032Z,349
2022-09-28T03:04:07.875Z,355
2022-09-28T03:05:07.678Z,359
2022-09-28T03:06:07.557Z,354
2022-09-28T03:07:07.640Z,355
2022-09-28T03:08:07.667Z,347
2022-09-28T03:09:07.560Z,348
2022-09-28T03:10:07.642Z,345
2022-09-28T03:11:07.441Z,347
2022-09-28T03:12:07.351Z,351
2022-09-28T03:14:08.025Z,356
2022-09-28T03:16:07.654Z,350
2022-09-28T03:17:07.739Z,349
2022-09-28T03:18:07.480Z,350
2022-09-28T03:19:07.115Z,355
2022-09-28T03:20:08.352Z,347
2022-09-28T03:21:07.394Z,359
2022-09-28T03:22:07.467Z,370
2022-09-28T03:23:23.832Z,345
2022-09-28T03:24:07.228Z,357
2022-09-28T03:25:08.194Z,353
2022-09-28T03:26:07.827Z,351
2022-09-28T03:27:07.736Z,354
2022-09-28T03:28:07.770Z,358
2022-09-28T03:29:07.834Z,352
2022-09-28T03:30:07.977Z,354
2022-09-28T03:31:07.881Z,353
2022-09-28T03:32:07.917Z,346
2022-09-28T03:33:07.882Z,340
2022-09-28T03:34:07.852Z,343
2022-09-28T03:35:08.066Z,339
2022-09-28T03:36:08.353Z,343
2022-09-28T03:37:07.475Z,354
2022-09-28T03:38:07.302Z,348
2022-09-28T03:39:07.317Z,346
2022-09-28T03:40:07.378Z,348
2022-09-28T03:41:07.165Z,352
2022-09-28T03:42:07.591Z,347
2022-09-28T03:43:07.672Z,345
2022-09-28T03:44:07.621Z,346
2022-09-28T03:45:07.628Z,344
2022-09-28T03:46:07.757Z,343
2022-09-28T03:47:07.627Z,340
2022-09-28T03:48:07.653Z,348
2022-09-28T03:49:07.790Z,354
2022-09-28T03:50:07.967Z,353
2022-09-28T03:51:07.992Z,351
2022-09-28T03:53:07.473Z,347
2022-09-28T03:54:07.700Z,353
2022-09-28T03:55:07.706Z,349
2022-09-28T03:56:07.902Z,351
2022-09-28T03:57:08.105Z,347
2022-09-28T03:58:08.042Z,343
2022-09-28T03:59:07.791Z,349
2022-09-28T04:00:08.421Z,353
2022-09-28T04:01:09.943Z,354
2022-09-28T04:02:07.656Z,355
2022-09-28T04:03:07.659Z,344
2022-09-28T04:04:07.796Z,380
2022-09-28T04:05:07.980Z,351
2022-09-28T04:06:07.974Z,350
2022-09-28T04:07:07.789Z,349
2022-09-28T04:08:07.745Z,343
2022-09-28T04:09:07.798Z,346
2022-09-28T04:10:07.984Z,350
2022-09-28T04:11:08.278Z,358
2022-09-28T04:12:07.398Z,367
2022-09-28T04:13:07.959Z,357
2022-09-28T04:14:07.876Z,358
2022-09-28T04:15:07.914Z,354
2022-09-28T04:16:08.019Z,356
2022-09-28T04:17:07.766Z,353
2022-09-28T04:18:08.170Z,355
2022-09-28T04:19:07.608Z,356
2022-09-28T04:20:07.771Z,357
2022-09-28T04:21:07.929Z,358
2022-09-28T04:22:07.975Z,362
2022-09-28T04:24:08.335Z,346
2022-09-28T04:25:08.082Z,350
2022-09-28T04:26:07.196Z,325
2022-09-28T04:27:08.039Z,335
2022-09-28T04:28:08.102Z,354
2022-09-28T04:29:08.191Z,358
2022-09-28T04:30:07.889Z,355
2022-09-28T04:31:08.557Z,358
2022-09-28T04:32:08.303Z,355
2022-09-28T04:33:07.915Z,350
2022-09-28T04:34:08.426Z,352
2022-09-28T04:35:07.711Z,343
2022-09-28T04:36:07.966Z,349
2022-09-28T04:37:07.818Z,345
2022-09-28T04:38:08.017Z,349
2022-09-28T04:39:08.509Z,343
2022-09-28T04:40:08.094Z,354
2022-09-28T04:41:07.320Z,356
2022-09-28T04:42:07.699Z,362
2022-09-28T04:43:07.815Z,360
2022-09-28T04:44:07.780Z,361
2022-09-28T04:45:07.908Z,354
2022-09-28T04:46:08.335Z,336
2022-09-28T04:47:07.629Z,380
2022-09-28T04:48:07.686Z,364
2022-09-28T04:50:08.027Z,361
2022-09-28T04:51:07.321Z,364
2022-09-28T04:52:07.359Z,361
2022-09-28T04:54:08.150Z,352
2022-09-28T04:55:08.126Z,351
2022-09-28T04:56:07.225Z,359
2022-09-28T04:57:07.917Z,363
2022-09-28T04:58:08.166Z,361
2022-09-28T04:59:07.577Z,356
2022-09-28T05:00:09.056Z,353
2022-09-28T05:01:07.834Z,356
2022-09-28T05:02:08.133Z,359
2022-09-28T05:03:07.382Z,360
2022-09-28T05:04:07.376Z,349
2022-09-28T05:06:07.577Z,346
2022-09-28T05:07:08.079Z,356
2022-09-28T05:08:07.848Z,332
2022-09-28T05:09:07.940Z,347
2022-09-28T05:10:08.072Z,355
2022-09-28T05:11:07.925Z,357
2022-09-28T05:12:08.121Z,350
2022-09-28T05:13:08.375Z,348
2022-09-28T05:15:08.056Z,354
2022-09-28T05:16:08.923Z,361
2022-09-28T05:17:08.258Z,360
2022-09-28T05:18:07.554Z,355
2022-09-28T05:19:07.864Z,356
2022-09-28T05:20:08.477Z,352
2022-09-28T05:21:07.946Z,340
2022-09-28T05:22:08.606Z,352
2022-09-28T05:23:07.928Z,353
2022-09-28T05:24:08.435Z,354
2022-09-28T05:25:07.968Z,360
2022-09-28T05:26:08.419Z,353
2022-09-28T05:27:08.462Z,349
2022-09-28T05:28:08.609Z,355
2022-09-28T05:29:08.339Z,348
2022-09-28T05:30:13.804Z,344
2022-09-28T05:31:08.197Z,356
2022-09-28T05:32:07.962Z,353
2022-09-28T05:33:07.642Z,356
2022-09-28T05:34:08.116Z,362
2022-09-28T05:35:08.274Z,374
2022-09-28T05:36:07.966Z,370
2022-09-28T05:37:07.662Z,366
2022-09-28T05:38:07.909Z,362
2022-09-28T05:39:08.461Z,366
2022-09-28T05:40:08.198Z,361
2022-09-28T05:41:07.955Z,360
2022-09-28T05:43:08.035Z,352
2022-09-28T05:44:07.457Z,357
2022-09-28T05:45:07.885Z,353
2022-09-28T05:46:22.291Z,352
2022-09-28T05:47:07.591Z,347
2022-09-28T05:48:08.087Z,354
2022-09-28T05:49:07.677Z,339
2022-09-28T05:50:07.908Z,359
2022-09-28T05:53:08.280Z,361
2022-09-28T05:54:07.950Z,362
2022-09-28T05:55:08.808Z,360
2022-09-28T05:56:08.525Z,367
2022-09-28T05:57:07.930Z,368
2022-09-28T05:58:07.945Z,361
2022-09-28T05:59:08.356Z,355
2022-09-28T06:00:08.775Z,363
2022-09-28T06:01:07.989Z,362
2022-09-28T06:02:08.049Z,369
2022-09-28T06:03:09.128Z,363
2022-09-28T06:04:08.427Z,367
2022-09-28T06:05:08.011Z,369
2022-09-28T06:06:07.909Z,367
2022-09-28T06:07:07.760Z,360
2022-09-28T06:08:08.566Z,366
2022-09-28T06:09:08.306Z,363
2022-09-28T06:10:08.139Z,371
2022-09-28T06:11:07.809Z,363
2022-09-28T06:12:07.636Z,350
2022-09-28T06:13:07.722Z,348
2022-09-28T06:14:08.046Z,359
2022-09-28T06:15:08.534Z,367
2022-09-28T06:16:08.191Z,360
2022-09-28T06:17:07.505Z,364
2022-09-28T06:18:07.866Z,362
2022-09-28T06:19:08.199Z,352
2022-09-28T06:20:07.683Z,362
2022-09-28T06:21:07.936Z,365
2022-09-28T06:22:08.068Z,354
2022-09-28T06:23:08.267Z,358
2022-09-28T06:24:07.652Z,355
2022-09-28T06:25:08.030Z,356
2022-09-28T06:26:08.179Z,350
2022-09-28T06:27:07.223Z,355
2022-09-28T06:28:07.737Z,360
2022-09-28T06:29:07.624Z,352
2022-09-28T06:30:07.999Z,347
2022-09-28T06:32:08.313Z,335
2022-09-28T06:33:07.519Z,367
2022-09-28T06:34:07.391Z,354
2022-09-28T06:35:07.743Z,350
2022-09-28T06:36:07.569Z,344
2022-09-28T06:37:07.632Z,349
2022-09-28T06:38:07.592Z,363
2022-09-28T06:39:07.924Z,352
2022-09-28T06:40:08.101Z,360
2022-09-28T06:41:07.144Z,349
2022-09-28T06:42:08.116Z,341
2022-09-28T06:43:08.100Z,346
2022-09-28T06:44:08.132Z,353
2022-09-28T06:45:08.632Z,356
2022-09-28T06:47:07.680Z,347
2022-09-28T06:48:07.561Z,348
2022-09-28T06:49:07.584Z,350
2022-09-28T06:50:07.812Z,358
2022-09-28T06:51:07.802Z,359
2022-09-28T06:52:08.094Z,360
2022-09-28T06:53:08.177Z,358
2022-09-28T06:54:07.351Z,355
2022-09-28T06:55:08.227Z,358
2022-09-28T06:56:07.474Z,353
2022-09-28T06:57:07.511Z,349
2022-09-28T06:58:07.283Z,351
2022-09-28T06:59:07.477Z,357
2022-09-28T07:00:08.685Z,351
2022-09-28T07:01:07.735Z,362
2022-09-28T07:02:08.313Z,359
2022-09-28T07:03:07.501Z,356
2022-09-28T07:05:07.804Z,349
2022-09-28T07:06:08.031Z,346
2022-09-28T07:07:08.249Z,345
2022-09-28T07:08:07.453Z,342
2022-09-28T07:09:26.296Z,344
2022-09-28T07:10:07.607Z,354
2022-09-28T07:11:07.706Z,353
2022-09-28T07:12:07.709Z,355
2022-09-28T07:13:10.441Z,344
2022-09-28T07:14:07.584Z,377
2022-09-28T07:15:08.287Z,345
2022-09-28T07:16:07.414Z,343
2022-09-28T07:17:13.186Z,341
2022-09-28T07:18:08.191Z,351
2022-09-28T07:19:08.081Z,352
2022-09-28T07:21:09.258Z,343
2022-09-28T07:22:07.238Z,338
2022-09-28T07:23:17.410Z,342
2022-09-28T07:24:07.930Z,350
2022-09-28T07:25:08.140Z,352
2022-09-28T07:26:09.229Z,358
2022-09-28T07:27:07.836Z,363
2022-09-28T07:28:07.955Z,350
2022-09-28T07:29:07.973Z,358
2022-09-28T07:30:08.259Z,344
2022-09-28T07:31:07.425Z,354
2022-09-28T07:32:07.733Z,356
2022-09-28T07:33:07.761Z,357
2022-09-28T07:35:08.274Z,343
2022-09-28T07:36:07.486Z,350
2022-09-28T07:37:07.481Z,349
2022-09-28T07:38:07.638Z,346
2022-09-28T07:39:07.835Z,342
2022-09-28T07:40:07.782Z,349
2022-09-28T07:41:08.282Z,353
2022-09-28T07:42:07.816Z,354
2022-09-28T07:43:07.973Z,352
2022-09-28T07:44:08.090Z,350
2022-09-28T07:45:08.110Z,348
2022-09-28T07:46:08.037Z,354
2022-09-28T07:47:13.078Z,353
2022-09-28T07:48:08.424Z,342
2022-09-28T07:49:11.412Z,351
2022-09-28T07:50:07.614Z,352
2022-09-28T07:51:08.094Z,343
2022-09-28T07:53:12.791Z,353
2022-09-28T07:54:08.043Z,349
2022-09-28T07:55:08.074Z,347
2022-09-28T07:56:08.401Z,344
2022-09-28T07:57:07.809Z,341
2022-09-28T07:58:07.835Z,335
2022-09-28T07:59:07.975Z,336
2022-09-28T08:00:08.804Z,326
2022-09-28T08:01:07.573Z,328
2022-09-28T08:02:07.847Z,334
2022-09-28T08:03:07.690Z,331
2022-09-28T08:04:07.867Z,352
2022-09-28T08:05:16.089Z,353
2022-09-28T08:06:08.029Z,352
2022-09-28T08:07:07.849Z,354
2022-09-28T08:08:07.825Z,351
2022-09-28T08:09:07.831Z,348
2022-09-28T08:10:08.409Z,349
2022-09-28T08:12:08.299Z,357
2022-09-28T08:13:08.768Z,347
2022-09-28T08:14:07.524Z,332
2022-09-28T08:15:07.861Z,337
2022-09-28T08:16:08.794Z,336
2022-09-28T08:17:07.637Z,342
2022-09-28T08:18:07.854Z,352
2022-09-28T08:19:21.844Z,358
2022-09-28T08:20:08.050Z,359
2022-09-28T08:21:27.148Z,346
2022-09-28T08:22:08.221Z,345
2022-09-28T08:24:07.627Z,349
2022-09-28T08:25:08.411Z,347
2022-09-28T08:26:10.982Z,338
2022-09-28T08:27:08.562Z,346
2022-09-28T08:28:07.832Z,342
2022-09-28T08:29:08.250Z,341
2022-09-28T08:30:08.778Z,351
2022-09-28T08:31:08.673Z,350
2022-09-28T08:32:08.369Z,342
2022-09-28T08:33:07.727Z,343
2022-09-28T08:34:07.884Z,350
2022-09-28T08:35:08.109Z,339
2022-09-28T08:36:08.425Z,350
2022-09-28T08:37:29.675Z,334
2022-09-28T08:38:07.727Z,339
2022-09-28T08:39:08.421Z,329
2022-09-28T08:40:07.855Z,337
2022-09-28T08:41:08.050Z,338
2022-09-28T08:42:07.512Z,351
2022-09-28T08:43:07.720Z,349
2022-09-28T08:44:07.880Z,338
2022-09-28T08:45:08.564Z,337
2022-09-28T08:46:08.299Z,349
2022-09-28T08:47:07.789Z,351
2022-09-28T08:48:08.208Z,343
2022-09-28T08:49:24.166Z,344
2022-09-28T08:50:07.968Z,342
2022-09-28T08:51:07.565Z,343
2022-09-28T08:52:08.110Z,336
2022-09-28T08:53:08.006Z,332
2022-09-28T08:54:11.074Z,333
2022-09-28T08:55:07.556Z,326
2022-09-28T08:56:07.890Z,330
2022-09-28T08:57:08.383Z,376
2022-09-28T08:58:07.457Z,362
2022-09-28T08:59:07.752Z,350
2022-09-28T09:00:11.001Z,349
2022-09-28T09:01:08.323Z,343
2022-09-28T09:02:07.575Z,340
2022-09-28T09:03:07.796Z,348
2022-09-28T09:04:08.050Z,351
2022-09-28T09:05:08.512Z,341
2022-09-28T09:06:07.931Z,344
2022-09-28T09:07:07.888Z,335
2022-09-28T09:08:08.560Z,338
2022-09-28T09:09:07.904Z,345
2022-09-28T09:10:08.269Z,341
2022-09-28T09:12:07.638Z,338
2022-09-28T09:13:07.990Z,339
2022-09-28T09:14:07.737Z,340
2022-09-28T09:15:08.168Z,342
2022-09-28T09:16:07.826Z,344
2022-09-28T09:17:08.308Z,366
2022-09-28T09:18:07.762Z,357
2022-09-28T09:19:07.998Z,341
2022-09-28T09:20:08.588Z,340
2022-09-28T09:21:08.459Z,339
2022-09-28T09:22:07.645Z,342
2022-09-28T09:23:07.837Z,350
2022-09-28T09:25:08.211Z,348
2022-09-28T09:26:07.569Z,345
2022-09-28T09:27:08.273Z,350
2022-09-28T09:28:08.111Z,343
2022-09-28T09:29:08.487Z,340
2022-09-28T09:30:08.394Z,345
2022-09-28T09:31:07.714Z,343
2022-09-28T09:32:08.111Z,348
2022-09-28T09:33:08.218Z,356
2022-09-28T09:34:07.701Z,347
2022-09-28T09:35:08.471Z,340
2022-09-28T09:36:07.964Z,373
2022-09-28T09:37:08.408Z,348
2022-09-28T09:38:07.737Z,339
2022-09-28T09:39:08.004Z,343
2022-09-28T09:40:07.878Z,336
2022-09-28T09:42:08.596Z,334
2022-09-28T09:43:08.374Z,341
2022-09-28T09:44:08.018Z,339
2022-09-28T09:45:08.567Z,342
2022-09-28T09:47:08.249Z,344
2022-09-28T09:48:07.755Z,348
2022-09-28T09:49:08.296Z,358
2022-09-28T09:50:09.174Z,350
2022-09-28T09:51:07.649Z,345
2022-09-28T09:52:08.016Z,341
2022-09-28T09:53:08.343Z,339
2022-09-28T09:54:07.892Z,337
2022-09-28T09:55:08.453Z,345
2022-09-28T09:56:08.036Z,338
2022-09-28T09:57:07.651Z,336
2022-09-28T09:58:07.905Z,341
2022-09-28T09:59:08.313Z,345
2022-09-28T10:00:08.595Z,336
2022-09-28T10:01:07.812Z,340
2022-09-28T10:02:11.676Z,344
2022-09-28T10:03:08.386Z,341
2022-09-28T10:04:07.817Z,345
2022-09-28T10:05:08.249Z,347
2022-09-28T10:06:07.479Z,345
2022-09-28T10:09:08.020Z,350
2022-09-28T10:10:07.806Z,354
2022-09-28T10:11:08.520Z,348
2022-09-28T10:12:07.986Z,336
2022-09-28T10:13:08.268Z,313
2022-09-28T10:14:07.596Z,345
2022-09-28T10:15:08.264Z,340
2022-09-28T10:16:07.622Z,324
2022-09-28T10:17:08.208Z,331
2022-09-28T10:18:07.745Z,345
2022-09-28T10:19:07.873Z,336
2022-09-28T10:20:07.943Z,348
2022-09-28T10:21:08.370Z,340
2022-09-28T10:22:07.735Z,333
2022-09-28T10:23:07.975Z,335
2022-09-28T10:24:08.708Z,336
2022-09-28T10:25:08.072Z,334
2022-09-28T10:26:07.658Z,338
2022-09-28T10:27:07.847Z,335
2022-09-28T10:28:08.348Z,337
2022-09-28T10:30:08.102Z,328
2022-09-28T10:32:21.900Z,313
2022-09-28T10:33:08.025Z,357
2022-09-28T10:34:08.117Z,369
2022-09-28T10:35:07.533Z,328
2022-09-28T10:36:21.883Z,333
2022-09-28T10:37:07.701Z,335
2022-09-28T10:38:08.334Z,345
2022-09-28T10:40:08.410Z,338
2022-09-28T10:41:07.845Z,340
2022-09-28T10:42:08.047Z,331
2022-09-28T10:43:08.225Z,338
2022-09-28T10:44:07.708Z,340
2022-09-28T10:45:08.245Z,348
2022-09-28T10:46:07.979Z,329
2022-09-28T10:47:07.670Z,318
2022-09-28T10:48:07.969Z,329
2022-09-28T10:49:08.001Z,330
2022-09-28T10:50:08.182Z,328
2022-09-28T10:51:07.784Z,333
2022-09-28T10:52:08.055Z,359
2022-09-28T10:53:08.390Z,314
2022-09-28T10:54:07.700Z,324
2022-09-28T10:55:07.867Z,332
2022-09-28T10:56:08.150Z,338
2022-09-28T10:57:12.741Z,342
2022-09-28T10:58:08.052Z,340
2022-09-28T10:59:08.513Z,348
2022-09-28T11:00:08.905Z,347
2022-09-28T11:01:07.891Z,343
2022-09-28T11:02:07.864Z,344
2022-09-28T11:03:07.609Z,348
2022-09-28T11:04:07.717Z,340
2022-09-28T11:05:08.491Z,333
2022-09-28T11:06:08.166Z,327
2022-09-28T11:07:07.803Z,342
2022-09-28T11:08:07.754Z,346
2022-09-28T11:09:08.055Z,348
2022-09-28T11:10:08.157Z,349
2022-09-28T11:11:07.471Z,354
2022-09-28T11:12:07.651Z,355
2022-09-28T11:13:07.664Z,347
2022-09-28T11:14:08.079Z,346
2022-09-28T11:15:08.782Z,339
2022-09-28T11:17:07.602Z,340
2022-09-28T11:18:07.815Z,345
2022-09-28T11:19:07.721Z,340
2022-09-28T11:20:08.280Z,334
2022-09-28T11:21:10.287Z,337
2022-09-28T11:22:07.352Z,328
2022-09-28T11:23:08.337Z,327
2022-09-28T11:24:07.765Z,334
2022-09-28T11:25:08.121Z,338
2022-09-28T11:26:07.509Z,331
2022-09-28T11:29:07.916Z,338
2022-09-28T11:30:08.245Z,343
2022-09-28T11:31:07.916Z,342
2022-09-28T11:33:07.947Z,347
2022-09-28T11:34:08.412Z,342
2022-09-28T11:35:08.045Z,333
2022-09-28T11:36:07.564Z,338
2022-09-28T11:37:08.099Z,336
2022-09-28T11:38:07.650Z,339
2022-09-28T11:39:08.166Z,357
2022-09-28T11:40:08.034Z,350
2022-09-28T11:41:07.807Z,338
2022-09-28T11:42:07.950Z,337
2022-09-28T11:43:07.766Z,339
2022-09-28T11:44:08.098Z,336
2022-09-28T11:45:07.854Z,339
2022-09-28T11:46:08.615Z,336
2022-09-28T11:47:08.151Z,326
2022-09-28T11:48:07.539Z,331
2022-09-28T11:49:07.913Z,336
2022-09-28T11:50:08.656Z,341
2022-09-28T11:51:08.399Z,333
2022-09-28T11:52:09.176Z,330
2022-09-28T11:53:07.439Z,342
2022-09-28T11:54:07.730Z,340
2022-09-28T11:55:08.268Z,347
2022-09-28T11:56:09.095Z,337
2022-09-28T11:57:07.799Z,340
2022-09-28T11:58:07.999Z,349
2022-09-28T11:59:08.105Z,340
2022-09-28T12:00:09.768Z,330
2022-09-28T12:01:07.824Z,334
2022-09-28T12:02:08.155Z,344
2022-09-28T12:04:08.085Z,339
2022-09-28T12:05:07.734Z,330
2022-09-28T12:06:08.336Z,323
2022-09-28T12:07:07.472Z,327
2022-09-28T12:08:07.677Z,312
2022-09-28T12:09:08.011Z,355
2022-09-28T12:10:08.539Z,345
2022-09-28T12:11:08.206Z,342
2022-09-28T12:12:07.713Z,341
2022-09-28T12:13:08.067Z,340
2022-09-28T12:14:08.376Z,343
2022-09-28T12:15:08.557Z,348
2022-09-28T12:16:27.662Z,346
2022-09-28T12:17:08.683Z,337
2022-09-28T12:18:08.499Z,340
2022-09-28T12:19:08.077Z,336
2022-09-28T12:20:08.554Z,339
2022-09-28T12:21:08.083Z,332
2022-09-28T12:22:08.837Z,342
2022-09-28T12:23:08.680Z,337
2022-09-28T12:24:08.563Z,333
2022-09-28T12:25:08.542Z,330
2022-09-28T12:26:07.842Z,338
2022-09-28T12:27:08.104Z,347
2022-09-28T12:28:08.137Z,323
2022-09-28T12:29:08.326Z,332
2022-09-28T12:30:07.947Z,342
2022-09-28T12:31:08.669Z,333
2022-09-28T12:32:07.701Z,339
2022-09-28T12:33:08.075Z,341
2022-09-28T12:34:08.226Z,345
2022-09-28T12:35:07.498Z,344
2022-09-28T12:36:07.681Z,337
2022-09-28T12:37:07.895Z,347
2022-09-28T12:38:08.211Z,349
2022-09-28T12:39:19.004Z,344
2022-09-28T12:40:07.858Z,332
2022-09-28T12:41:08.108Z,331
2022-09-28T12:42:08.111Z,342
2022-09-28T12:43:08.150Z,335
2022-09-28T12:45:08.130Z,342
2022-09-28T12:46:12.019Z,339
2022-09-28T12:47:08.092Z,321
2022-09-28T12:48:08.062Z,325
2022-09-28T12:50:27.101Z,329
2022-09-28T12:50:37.720Z,335
2022-09-28T12:51:08.075Z,343
2022-09-28T12:52:08.681Z,346
2022-09-28T12:53:07.790Z,345
2022-09-28T12:55:07.826Z,346
2022-09-28T12:56:07.696Z,348
2022-09-28T12:57:07.676Z,352
2022-09-28T12:58:07.442Z,343
2022-09-28T12:59:07.536Z,349
2022-09-28T13:01:07.945Z,339
2022-09-28T13:02:08.227Z,338
2022-09-28T13:03:22.424Z,341
2022-09-28T13:04:10.346Z,338
2022-09-28T13:05:07.628Z,354
2022-09-28T13:06:07.655Z,351
2022-09-28T13:07:07.727Z,338
2022-09-28T13:08:07.795Z,348
2022-09-28T13:09:08.060Z,344
2022-09-28T13:10:08.155Z,341
2022-09-28T13:11:08.151Z,347
2022-09-28T13:12:07.847Z,345
2022-09-28T13:13:07.844Z,337
2022-09-28T13:14:08.024Z,332
2022-09-28T13:15:08.481Z,341
2022-09-28T13:16:07.459Z,337
2022-09-28T13:17:07.492Z,330
2022-09-28T13:18:07.615Z,339
2022-09-28T13:19:07.801Z,324
2022-09-28T13:20:07.574Z,316
2022-09-28T13:21:07.756Z,323
2022-09-28T13:22:07.776Z,342
2022-09-28T13:23:07.451Z,337
2022-09-28T13:24:27.874Z,360
2022-09-28T13:25:08.034Z,342
2022-09-28T13:27:07.947Z,343
2022-09-28T13:28:08.111Z,337
2022-09-28T13:29:08.120Z,334
2022-09-28T13:30:08.533Z,331
2022-09-28T13:31:07.781Z,333
2022-09-28T13:32:07.996Z,339
2022-09-28T13:33:08.330Z,332
2022-09-28T13:34:08.502Z,329
2022-09-28T13:35:07.986Z,326
2022-09-28T13:36:08.056Z,330
2022-09-28T13:37:08.088Z,335
2022-09-28T13:38:08.240Z,341
2022-09-28T13:39:08.281Z,343
2022-09-28T13:40:08.058Z,340
2022-09-28T13:41:08.064Z,342
2022-09-28T13:42:08.091Z,346
2022-09-28T13:43:08.126Z,349
2022-09-28T13:44:07.604Z,357
2022-09-28T13:45:08.176Z,340
2022-09-28T13:46:07.678Z,337
2022-09-28T13:47:07.988Z,346
2022-09-28T13:48:08.256Z,341
2022-09-28T13:49:07.418Z,331
2022-09-28T13:50:07.639Z,337
2022-09-28T13:51:07.591Z,351
2022-09-28T13:52:07.403Z,340
2022-09-28T13:53:07.505Z,343
2022-09-28T13:55:07.875Z,338
2022-09-28T13:56:07.896Z,333
2022-09-28T13:57:07.577Z,335
2022-09-28T13:58:07.520Z,339
2022-09-28T13:59:07.482Z,340
2022-09-28T14:00:08.184Z,342
2022-09-28T14:01:08.175Z,337
2022-09-28T14:02:08.513Z,351
2022-09-28T14:03:09.367Z,357
2022-09-28T14:04:07.487Z,344
2022-09-28T14:06:07.739Z,326
2022-09-28T14:07:07.784Z,329
2022-09-28T14:08:08.153Z,332
2022-09-28T14:09:07.910Z,330
2022-09-28T14:10:08.568Z,333
2022-09-28T14:11:08.322Z,335
2022-09-28T14:12:07.603Z,345
2022-09-28T14:13:08.649Z,339
2022-09-28T14:14:08.133Z,338
2022-09-28T14:15:08.421Z,337
2022-09-28T14:16:07.419Z,336
2022-09-28T14:17:08.092Z,331
2022-09-28T14:18:08.071Z,333
2022-09-28T14:19:07.254Z,345
2022-09-28T14:20:07.609Z,343
2022-09-28T14:21:07.784Z,334
2022-09-28T14:22:07.887Z,322
2022-09-28T14:23:07.899Z,335
2022-09-28T14:24:08.126Z,341
2022-09-28T14:25:08.379Z,334
2022-09-28T14:26:07.460Z,332
2022-09-28T14:27:07.604Z,331
2022-09-28T14:28:07.731Z,342
2022-09-28T14:29:10.043Z,334
2022-09-28T14:30:08.578Z,325
2022-09-28T14:31:07.965Z,333
2022-09-28T14:32:08.571Z,339
2022-09-28T14:34:07.854Z,329
2022-09-28T14:35:07.844Z,323
2022-09-28T14:36:07.522Z,320